sensor_id;sensor_type;location;lat;lon;timestamp;temperature;humidity
14875;DHT22;7529;48.170;17.138;2022-10-15T00:03:43;11.00;99.90
14875;DHT22;7529;48.170;17.138;2022-10-15T00:07:54;11.00;99.90
14875;DHT22;7529;48.170;17.138;2022-10-15T00:12:06;11.00;99.90
14875;DHT22;7529;48.170;17.138;2022-10-15T00:16:20;11.00;99.90
14875;DHT22;7529;48.170;17.138;2022-10-15T00:20:33;11.10;99.90
14875;DHT22;7529;48.170;17.138;2022-10-15T00:24:44;11.00;99.90
14875;DHT22;7529;48.170;17.138;2022-10-15T00:28:59;11.10;99.90
14875;DHT22;7529;48.170;17.138;2022-10-15T00:33:11;11.10;99.90
14875;DHT22;7529;48.170;17.138;2022-10-15T00:37:23;11.10;99.90
14875;DHT22;7529;48.170;17.138;2022-10-15T00:41:41;11.10;99.90
14875;DHT22;7529;48.170;17.138;2022-10-15T00:45:54;11.20;99.90
14875;DHT22;7529;48.170;17.138;2022-10-15T00:50:11;11.10;99.90
14875;DHT22;7529;48.170;17.138;2022-10-15T00:54:26;11.20;99.90
14875;DHT22;7529;48.170;17.138;2022-10-15T00:58:40;11.10;99.90
14875;DHT22;7529;48.170;17.138;2022-10-15T01:02:52;11.00;99.90
14875;DHT22;7529;48.170;17.138;2022-10-15T01:07:03;11.00;99.90
14875;DHT22;7529;48.170;17.138;2022-10-15T01:11:35;11.00;99.90
14875;DHT22;7529;48.170;17.138;2022-10-15T01:15:57;11.00;99.90
14875;DHT22;7529;48.170;17.138;2022-10-15T01:20:33;11.00;99.90
14875;DHT22;7529;48.170;17.138;2022-10-15T01:30:04;10.90;99.90
14875;DHT22;7529;48.170;17.138;2022-10-15T01:38:57;11.00;99.90
14875;DHT22;7529;48.170;17.138;2022-10-15T01:43:28;11.00;99.90
14875;DHT22;7529;48.170;17.138;2022-10-15T01:48:04;11.10;99.90
14875;DHT22;7529;48.170;17.138;2022-10-15T01:52:22;11.20;99.90
14875;DHT22;7529;48.170;17.138;2022-10-15T01:56:36;11.20;99.90
14875;DHT22;7529;48.170;17.138;2022-10-15T02:00:49;11.30;99.90
14875;DHT22;7529;48.170;17.138;2022-10-15T02:05:04;11.20;99.90
14875;DHT22;7529;48.170;17.138;2022-10-15T02:14:13;11.20;99.90
14875;DHT22;7529;48.170;17.138;2022-10-15T02:18:49;11.10;99.90
14875;DHT22;7529;48.170;17.138;2022-10-15T02:23:16;11.10;99.90
14875;DHT22;7529;48.170;17.138;2022-10-15T02:27:51;11.10;99.90
14875;DHT22;7529;48.170;17.138;2022-10-15T02:32:05;11.10;99.90
14875;DHT22;7529;48.170;17.138;2022-10-15T02:36:18;11.00;99.90
14875;DHT22;7529;48.170;17.138;2022-10-15T02:40:32;11.10;99.90
14875;DHT22;7529;48.170;17.138;2022-10-15T02:44:46;11.10;99.90
14875;DHT22;7529;48.170;17.138;2022-10-15T02:48:57;11.10;99.90
14875;DHT22;7529;48.170;17.138;2022-10-15T02:53:08;11.20;99.90
14875;DHT22;7529;48.170;17.138;2022-10-15T02:57:20;11.20;99.90
14875;DHT22;7529;48.170;17.138;2022-10-15T03:01:33;11.30;99.90
14875;DHT22;7529;48.170;17.138;2022-10-15T03:05:44;11.30;99.90
14875;DHT22;7529;48.170;17.138;2022-10-15T03:09:56;11.30;99.90
14875;DHT22;7529;48.170;17.138;2022-10-15T03:14:08;11.30;99.90
14875;DHT22;7529;48.170;17.138;2022-10-15T03:18:20;11.30;99.90
14875;DHT22;7529;48.170;17.138;2022-10-15T03:22:32;11.30;99.90
14875;DHT22;7529;48.170;17.138;2022-10-15T03:26:43;11.40;99.90
14875;DHT22;7529;48.170;17.138;2022-10-15T03:30:55;11.30;99.90
14875;DHT22;7529;48.170;17.138;2022-10-15T03:35:07;11.30;99.90
14875;DHT22;7529;48.170;17.138;2022-10-15T03:39:20;11.40;99.90
14875;DHT22;7529;48.170;17.138;2022-10-15T03:43:31;11.40;99.90
14875;DHT22;7529;48.170;17.138;2022-10-15T03:47:44;11.40;99.90
14875;DHT22;7529;48.170;17.138;2022-10-15T03:51:56;11.40;99.90
14875;DHT22;7529;48.170;17.138;2022-10-15T03:56:08;11.40;99.90
14875;DHT22;7529;48.170;17.138;2022-10-15T04:00:22;11.50;99.90
14875;DHT22;7529;48.170;17.138;2022-10-15T04:04:38;11.50;99.90
14875;DHT22;7529;48.170;17.138;2022-10-15T04:08:50;11.60;99.90
14875;DHT22;7529;48.170;17.138;2022-10-15T04:13:07;11.60;99.90
14875;DHT22;7529;48.170;17.138;2022-10-15T04:17:19;11.70;99.90
14875;DHT22;7529;48.170;17.138;2022-10-15T04:21:30;11.80;99.90
14875;DHT22;7529;48.170;17.138;2022-10-15T04:25:45;11.80;99.90
14875;DHT22;7529;48.170;17.138;2022-10-15T04:29:57;11.80;99.90
14875;DHT22;7529;48.170;17.138;2022-10-15T04:34:08;11.90;99.90
14875;DHT22;7529;48.170;17.138;2022-10-15T04:38:21;11.80;99.90
14875;DHT22;7529;48.170;17.138;2022-10-15T04:42:58;11.70;99.90
14875;DHT22;7529;48.170;17.138;2022-10-15T04:47:09;11.70;99.90
14875;DHT22;7529;48.170;17.138;2022-10-15T04:51:27;11.60;99.90
14875;DHT22;7529;48.170;17.138;2022-10-15T04:55:51;11.50;99.90
14875;DHT22;7529;48.170;17.138;2022-10-15T05:00:03;11.50;99.90
14875;DHT22;7529;48.170;17.138;2022-10-15T05:04:17;11.50;99.90
14875;DHT22;7529;48.170;17.138;2022-10-15T05:08:30;11.50;99.90
14875;DHT22;7529;48.170;17.138;2022-10-15T05:13:04;11.60;99.90
14875;DHT22;7529;48.170;17.138;2022-10-15T05:17:18;11.50;99.90
14875;DHT22;7529;48.170;17.138;2022-10-15T05:21:30;11.50;99.90
14875;DHT22;7529;48.170;17.138;2022-10-15T05:25:45;11.50;99.90
14875;DHT22;7529;48.170;17.138;2022-10-15T05:30:04;11.60;99.90
14875;DHT22;7529;48.170;17.138;2022-10-15T05:34:25;11.60;99.90
14875;DHT22;7529;48.170;17.138;2022-10-15T05:38:57;11.70;99.90
14875;DHT22;7529;48.170;17.138;2022-10-15T05:43:09;11.80;99.90
14875;DHT22;7529;48.170;17.138;2022-10-15T05:47:20;12.00;99.90
14875;DHT22;7529;48.170;17.138;2022-10-15T05:51:32;12.20;99.90
14875;DHT22;7529;48.170;17.138;2022-10-15T05:55:52;12.30;99.90
14875;DHT22;7529;48.170;17.138;2022-10-15T06:00:05;12.50;99.90
14875;DHT22;7529;48.170;17.138;2022-10-15T06:04:23;12.70;99.90
14875;DHT22;7529;48.170;17.138;2022-10-15T06:08:34;12.80;99.90
14875;DHT22;7529;48.170;17.138;2022-10-15T06:12:49;12.90;99.90
14875;DHT22;7529;48.170;17.138;2022-10-15T06:17:01;13.00;99.90
14875;DHT22;7529;48.170;17.138;2022-10-15T06:21:12;13.00;99.90
14875;DHT22;7529;48.170;17.138;2022-10-15T06:25:24;13.20;99.90
14875;DHT22;7529;48.170;17.138;2022-10-15T06:29:35;13.50;99.90
14875;DHT22;7529;48.170;17.138;2022-10-15T06:33:46;13.70;99.90
14875;DHT22;7529;48.170;17.138;2022-10-15T06:38:03;13.70;99.90
14875;DHT22;7529;48.170;17.138;2022-10-15T06:42:14;13.60;99.90
14875;DHT22;7529;48.170;17.138;2022-10-15T06:46:25;13.70;99.90
14875;DHT22;7529;48.170;17.138;2022-10-15T06:50:37;13.80;99.90
14875;DHT22;7529;48.170;17.138;2022-10-15T06:54:49;14.10;99.90
14875;DHT22;7529;48.170;17.138;2022-10-15T06:59:04;14.40;99.90
14875;DHT22;7529;48.170;17.138;2022-10-15T07:03:15;14.50;99.90
14875;DHT22;7529;48.170;17.138;2022-10-15T07:07:26;14.40;99.90
14875;DHT22;7529;48.170;17.138;2022-10-15T07:11:38;14.30;99.90
14875;DHT22;7529;48.170;17.138;2022-10-15T07:15:49;14.20;99.90
14875;DHT22;7529;48.170;17.138;2022-10-15T07:20:04;14.20;99.90
14875;DHT22;7529;48.170;17.138;2022-10-15T07:24:16;14.30;99.90
14875;DHT22;7529;48.170;17.138;2022-10-15T07:28:27;14.60;99.90
14875;DHT22;7529;48.170;17.138;2022-10-15T07:32:39;14.90;99.90
14875;DHT22;7529;48.170;17.138;2022-10-15T07:36:50;15.10;99.40
14875;DHT22;7529;48.170;17.138;2022-10-15T07:41:02;15.20;98.90
14875;DHT22;7529;48.170;17.138;2022-10-15T07:45:16;15.40;98.30
14875;DHT22;7529;48.170;17.138;2022-10-15T07:49:27;15.70;98.00
14875;DHT22;7529;48.170;17.138;2022-10-15T07:53:39;15.70;97.20
14875;DHT22;7529;48.170;17.138;2022-10-15T07:57:50;15.70;96.90
14875;DHT22;7529;48.170;17.138;2022-10-15T08:02:01;15.90;96.50
14875;DHT22;7529;48.170;17.138;2022-10-15T08:06:12;16.00;96.10
14875;DHT22;7529;48.170;17.138;2022-10-15T08:10:23;16.20;95.70
14875;DHT22;7529;48.170;17.138;2022-10-15T08:18:47;16.50;95.20
14875;DHT22;7529;48.170;17.138;2022-10-15T08:22:58;17.10;94.00
14875;DHT22;7529;48.170;17.138;2022-10-15T08:27:10;17.10;93.50
14875;DHT22;7529;48.170;17.138;2022-10-15T08:31:21;17.20;93.20
14875;DHT22;7529;48.170;17.138;2022-10-15T08:35:32;17.60;92.60
14875;DHT22;7529;48.170;17.138;2022-10-15T08:43:58;18.10;92.20
14875;DHT22;7529;48.170;17.138;2022-10-15T08:48:12;18.40;90.80
14875;DHT22;7529;48.170;17.138;2022-10-15T08:52:48;18.10;90.70
14875;DHT22;7529;48.170;17.138;2022-10-15T09:02:00;17.80;90.60
14875;DHT22;7529;48.170;17.138;2022-10-15T09:10:51;18.00;90.40
14875;DHT22;7529;48.170;17.138;2022-10-15T12:53:44;15.60;90.20
14875;DHT22;7529;48.170;17.138;2022-10-15T12:58:29;15.30;91.80
14875;DHT22;7529;48.170;17.138;2022-10-15T13:02:44;15.10;94.60
14875;DHT22;7529;48.170;17.138;2022-10-15T13:07:03;14.80;96.30
14875;DHT22;7529;48.170;17.138;2022-10-15T13:11:27;14.60;98.40
14875;DHT22;7529;48.170;17.138;2022-10-15T13:16:06;14.60;99.60
14875;DHT22;7529;48.170;17.138;2022-10-15T13:20:36;14.50;99.90
14875;DHT22;7529;48.170;17.138;2022-10-15T13:24:49;14.50;99.90
14875;DHT22;7529;48.170;17.138;2022-10-15T13:29:00;14.60;99.90
14875;DHT22;7529;48.170;17.138;2022-10-15T13:33:12;14.60;99.90
14875;DHT22;7529;48.170;17.138;2022-10-15T13:37:34;14.60;99.90
14875;DHT22;7529;48.170;17.138;2022-10-15T13:41:45;14.60;99.90
14875;DHT22;7529;48.170;17.138;2022-10-15T13:45:58;14.70;99.90
14875;DHT22;7529;48.170;17.138;2022-10-15T13:50:26;14.60;99.90
14875;DHT22;7529;48.170;17.138;2022-10-15T13:54:38;14.50;99.90
14875;DHT22;7529;48.170;17.138;2022-10-15T13:58:53;14.40;99.90
14875;DHT22;7529;48.170;17.138;2022-10-15T14:07:53;14.20;99.90
14875;DHT22;7529;48.170;17.138;2022-10-15T14:12:06;14.20;99.90
14875;DHT22;7529;48.170;17.138;2022-10-15T14:20:37;14.20;99.90
14875;DHT22;7529;48.170;17.138;2022-10-15T14:24:51;14.20;99.90
14875;DHT22;7529;48.170;17.138;2022-10-15T14:29:03;14.20;99.90
14875;DHT22;7529;48.170;17.138;2022-10-15T14:42:27;14.10;99.90
14875;DHT22;7529;48.170;17.138;2022-10-15T14:46:44;14.10;99.90
14875;DHT22;7529;48.170;17.138;2022-10-15T14:51:02;14.10;99.90
14875;DHT22;7529;48.170;17.138;2022-10-15T14:55:34;14.20;99.90
14875;DHT22;7529;48.170;17.138;2022-10-15T14:59:52;14.20;99.90
14875;DHT22;7529;48.170;17.138;2022-10-15T15:04:05;14.20;99.90
14875;DHT22;7529;48.170;17.138;2022-10-15T15:08:16;14.20;99.90
14875;DHT22;7529;48.170;17.138;2022-10-15T15:12:27;14.20;99.90
14875;DHT22;7529;48.170;17.138;2022-10-15T15:16:38;14.20;99.90
14875;DHT22;7529;48.170;17.138;2022-10-15T15:20:50;14.20;99.90
14875;DHT22;7529;48.170;17.138;2022-10-15T15:25:15;14.20;99.90
14875;DHT22;7529;48.170;17.138;2022-10-15T15:29:26;14.20;99.90
14875;DHT22;7529;48.170;17.138;2022-10-15T15:33:38;14.20;99.90
14875;DHT22;7529;48.170;17.138;2022-10-15T15:37:51;14.20;99.90
14875;DHT22;7529;48.170;17.138;2022-10-15T15:42:03;14.10;99.90
14875;DHT22;7529;48.170;17.138;2022-10-15T15:46:14;14.10;99.90
14875;DHT22;7529;48.170;17.138;2022-10-15T15:50:26;14.10;99.90
14875;DHT22;7529;48.170;17.138;2022-10-15T15:54:38;14.10;99.90
14875;DHT22;7529;48.170;17.138;2022-10-15T15:58:52;14.10;99.90
14875;DHT22;7529;48.170;17.138;2022-10-15T16:03:04;14.00;99.90
14875;DHT22;7529;48.170;17.138;2022-10-15T16:07:15;14.00;99.90
14875;DHT22;7529;48.170;17.138;2022-10-15T16:11:26;13.90;99.90
14875;DHT22;7529;48.170;17.138;2022-10-15T16:15:37;13.90;99.90
14875;DHT22;7529;48.170;17.138;2022-10-15T16:19:48;13.90;99.90
14875;DHT22;7529;48.170;17.138;2022-10-15T16:24:00;13.80;99.90
14875;DHT22;7529;48.170;17.138;2022-10-15T16:28:12;13.80;99.90
14875;DHT22;7529;48.170;17.138;2022-10-15T16:32:24;13.80;99.90
14875;DHT22;7529;48.170;17.138;2022-10-15T16:36:35;13.80;99.90
14875;DHT22;7529;48.170;17.138;2022-10-15T16:40:46;13.80;99.90
14875;DHT22;7529;48.170;17.138;2022-10-15T16:44:59;13.80;99.90
14875;DHT22;7529;48.170;17.138;2022-10-15T16:49:10;13.90;99.90
14875;DHT22;7529;48.170;17.138;2022-10-15T16:53:21;13.80;99.90
14875;DHT22;7529;48.170;17.138;2022-10-15T16:57:32;13.80;99.90
14875;DHT22;7529;48.170;17.138;2022-10-15T17:01:43;13.80;99.90
14875;DHT22;7529;48.170;17.138;2022-10-15T17:05:59;13.80;99.90
14875;DHT22;7529;48.170;17.138;2022-10-15T17:10:10;13.80;99.90
14875;DHT22;7529;48.170;17.138;2022-10-15T17:14:22;13.80;99.90
14875;DHT22;7529;48.170;17.138;2022-10-15T17:18:33;13.80;99.90
14875;DHT22;7529;48.170;17.138;2022-10-15T17:22:44;13.90;99.90
14875;DHT22;7529;48.170;17.138;2022-10-15T17:26:55;13.90;99.90
14875;DHT22;7529;48.170;17.138;2022-10-15T17:31:11;13.80;99.90
14875;DHT22;7529;48.170;17.138;2022-10-15T17:35:24;13.90;99.90
14875;DHT22;7529;48.170;17.138;2022-10-15T17:39:35;13.90;99.90
14875;DHT22;7529;48.170;17.138;2022-10-15T17:43:48;13.80;99.90
14875;DHT22;7529;48.170;17.138;2022-10-15T17:47:59;13.90;99.90
14875;DHT22;7529;48.170;17.138;2022-10-15T17:52:10;13.90;99.90
14875;DHT22;7529;48.170;17.138;2022-10-15T17:56:27;13.90;99.90
14875;DHT22;7529;48.170;17.138;2022-10-15T18:00:43;13.80;99.90
14875;DHT22;7529;48.170;17.138;2022-10-15T18:04:54;13.80;99.90
14875;DHT22;7529;48.170;17.138;2022-10-15T18:09:05;13.90;99.90
14875;DHT22;7529;48.170;17.138;2022-10-15T18:13:17;13.90;99.90
14875;DHT22;7529;48.170;17.138;2022-10-15T18:17:29;13.90;99.90
14875;DHT22;7529;48.170;17.138;2022-10-15T18:21:40;13.90;99.90
14875;DHT22;7529;48.170;17.138;2022-10-15T18:26:02;13.90;99.90
14875;DHT22;7529;48.170;17.138;2022-10-15T18:30:17;13.90;99.90
14875;DHT22;7529;48.170;17.138;2022-10-15T18:34:29;14.00;99.90
14875;DHT22;7529;48.170;17.138;2022-10-15T18:38:40;13.90;99.90
14875;DHT22;7529;48.170;17.138;2022-10-15T18:42:53;14.00;99.90
14875;DHT22;7529;48.170;17.138;2022-10-15T18:47:06;14.00;99.90
14875;DHT22;7529;48.170;17.138;2022-10-15T18:51:27;14.00;99.90
14875;DHT22;7529;48.170;17.138;2022-10-15T18:55:38;14.00;99.90
14875;DHT22;7529;48.170;17.138;2022-10-15T18:59:49;13.90;99.90
14875;DHT22;7529;48.170;17.138;2022-10-15T19:04:04;13.90;99.90
14875;DHT22;7529;48.170;17.138;2022-10-15T19:08:17;14.00;99.90
14875;DHT22;7529;48.170;17.138;2022-10-15T19:12:28;14.00;99.90
14875;DHT22;7529;48.170;17.138;2022-10-15T19:16:39;14.00;99.90
14875;DHT22;7529;48.170;17.138;2022-10-15T19:20:53;14.00;99.90
14875;DHT22;7529;48.170;17.138;2022-10-15T19:25:05;13.90;99.90
14875;DHT22;7529;48.170;17.138;2022-10-15T19:29:17;13.90;99.90
14875;DHT22;7529;48.170;17.138;2022-10-15T19:33:31;13.90;99.90
14875;DHT22;7529;48.170;17.138;2022-10-15T19:37:43;13.90;99.90
14875;DHT22;7529;48.170;17.138;2022-10-15T19:41:54;13.90;99.90
14875;DHT22;7529;48.170;17.138;2022-10-15T19:46:05;13.90;99.90
14875;DHT22;7529;48.170;17.138;2022-10-15T19:50:17;13.90;99.90
14875;DHT22;7529;48.170;17.138;2022-10-15T19:54:28;14.00;99.90
14875;DHT22;7529;48.170;17.138;2022-10-15T19:58:40;14.00;99.90
14875;DHT22;7529;48.170;17.138;2022-10-15T20:02:52;14.00;99.90
14875;DHT22;7529;48.170;17.138;2022-10-15T20:07:03;14.00;99.90
14875;DHT22;7529;48.170;17.138;2022-10-15T20:11:14;14.00;99.90
14875;DHT22;7529;48.170;17.138;2022-10-15T20:15:25;14.00;99.90
14875;DHT22;7529;48.170;17.138;2022-10-15T20:19:37;14.00;99.90
14875;DHT22;7529;48.170;17.138;2022-10-15T20:23:48;14.00;99.90
14875;DHT22;7529;48.170;17.138;2022-10-15T20:27:59;14.00;99.90
14875;DHT22;7529;48.170;17.138;2022-10-15T20:32:10;14.00;99.90
14875;DHT22;7529;48.170;17.138;2022-10-15T20:36:26;13.90;99.90
14875;DHT22;7529;48.170;17.138;2022-10-15T20:40:39;13.90;99.90
14875;DHT22;7529;48.170;17.138;2022-10-15T20:44:51;13.90;99.90
14875;DHT22;7529;48.170;17.138;2022-10-15T20:49:09;13.80;99.90
14875;DHT22;7529;48.170;17.138;2022-10-15T20:53:24;13.80;99.90
14875;DHT22;7529;48.170;17.138;2022-10-15T20:57:37;13.80;99.90
14875;DHT22;7529;48.170;17.138;2022-10-15T21:01:48;13.80;99.90
14875;DHT22;7529;48.170;17.138;2022-10-15T21:05:59;13.80;99.90
14875;DHT22;7529;48.170;17.138;2022-10-15T21:10:11;13.80;99.90
14875;DHT22;7529;48.170;17.138;2022-10-15T21:14:22;13.80;99.90
14875;DHT22;7529;48.170;17.138;2022-10-15T21:18:34;13.80;99.90
14875;DHT22;7529;48.170;17.138;2022-10-15T21:22:46;13.70;99.90
14875;DHT22;7529;48.170;17.138;2022-10-15T21:26:57;13.60;99.90
14875;DHT22;7529;48.170;17.138;2022-10-15T21:31:14;13.60;99.90
14875;DHT22;7529;48.170;17.138;2022-10-15T21:35:26;13.60;99.90
14875;DHT22;7529;48.170;17.138;2022-10-15T21:39:37;13.60;99.90
14875;DHT22;7529;48.170;17.138;2022-10-15T21:43:48;13.70;99.90
14875;DHT22;7529;48.170;17.138;2022-10-15T21:47:59;13.80;99.90
14875;DHT22;7529;48.170;17.138;2022-10-15T21:52:11;13.80;99.90
14875;DHT22;7529;48.170;17.138;2022-10-15T21:56:22;13.80;99.90
14875;DHT22;7529;48.170;17.138;2022-10-15T22:00:34;13.80;99.90
14875;DHT22;7529;48.170;17.138;2022-10-15T22:04:45;13.80;99.90
14875;DHT22;7529;48.170;17.138;2022-10-15T22:08:56;13.80;99.90
14875;DHT22;7529;48.170;17.138;2022-10-15T22:13:07;13.70;99.90
14875;DHT22;7529;48.170;17.138;2022-10-15T22:17:18;13.60;99.90
14875;DHT22;7529;48.170;17.138;2022-10-15T22:21:32;13.50;99.90
14875;DHT22;7529;48.170;17.138;2022-10-15T22:25:45;13.50;99.90
14875;DHT22;7529;48.170;17.138;2022-10-15T22:29:57;13.50;99.90
14875;DHT22;7529;48.170;17.138;2022-10-15T22:34:08;13.50;99.90
14875;DHT22;7529;48.170;17.138;2022-10-15T22:38:19;13.50;99.90
14875;DHT22;7529;48.170;17.138;2022-10-15T22:42:30;13.40;99.90
14875;DHT22;7529;48.170;17.138;2022-10-15T22:46:41;13.40;99.90
14875;DHT22;7529;48.170;17.138;2022-10-15T22:50:56;13.50;99.90
14875;DHT22;7529;48.170;17.138;2022-10-15T22:55:08;13.60;99.90
14875;DHT22;7529;48.170;17.138;2022-10-15T22:59:19;13.60;99.90
14875;DHT22;7529;48.170;17.138;2022-10-15T23:03:30;13.70;99.90
14875;DHT22;7529;48.170;17.138;2022-10-15T23:07:42;13.80;99.90
14875;DHT22;7529;48.170;17.138;2022-10-15T23:11:53;13.80;99.90
14875;DHT22;7529;48.170;17.138;2022-10-15T23:16:16;13.80;99.90
14875;DHT22;7529;48.170;17.138;2022-10-15T23:20:29;13.80;99.90
14875;DHT22;7529;48.170;17.138;2022-10-15T23:24:40;13.70;99.90
14875;DHT22;7529;48.170;17.138;2022-10-15T23:28:53;13.70;99.90
14875;DHT22;7529;48.170;17.138;2022-10-15T23:33:06;13.60;99.90
14875;DHT22;7529;48.170;17.138;2022-10-15T23:37:17;13.50;99.90
14875;DHT22;7529;48.170;17.138;2022-10-15T23:41:29;13.50;99.90
14875;DHT22;7529;48.170;17.138;2022-10-15T23:45:41;13.50;99.90
14875;DHT22;7529;48.170;17.138;2022-10-15T23:49:52;13.30;99.90
14875;DHT22;7529;48.170;17.138;2022-10-15T23:54:09;13.30;99.90
14875;DHT22;7529;48.170;17.138;2022-10-15T23:58:22;13.20;99.90
